Time;durP1;ratioP1;P1;durP2;ratioP2;P2;SDS_P1;SDS_P2;PMS_P1;PMS_P2;Temp;Humidity;BMP_temperature;BMP_pressure;BME280_temperature;BME280_humidity;BME280_pressure;Samples;Min_cycle;Max_cycle;Signal;HPM_P1;HPM_P2
2022/10/30 00:00:49;;;;;;;8.73;5.53;;;;;;;;;;4979814;28;20310;-64
2022/10/30 00:03:17;;;;;;;13.97;6.00;;;;;;;;;;5005695;28;20242;-64
2022/10/30 00:05:46;;;;;;;9.53;6.00;;;;;;;;;;4979474;28;20302;-65
2022/10/30 00:08:14;;;;;;;11.70;7.27;;;;;;;;;;4975006;28;20270;-64
2022/10/30 00:10:42;;;;;;;13.87;7.03;;;;;;;;;;4969729;28;20346;-64
2022/10/30 00:13:09;;;;;;;14.77;7.60;;;;;;;;;;4965275;28;20218;-64
2022/10/30 00:15:37;;;;;;;15.33;7.20;;;;;;;;;;4968810;28;20203;-64
2022/10/30 00:18:04;;;;;;;12.27;7.20;;;;;;;;;;4976023;28;20238;-65
2022/10/30 00:20:32;;;;;;;13.60;7.03;;;;;;;;;;4975778;28;20227;-64
2022/10/30 00:22:59;;;;;;;16.70;8.33;;;;;;;;;;4970079;28;20207;-64
2022/10/30 00:25:27;;;;;;;17.90;8.73;;;;;;;;;;4989462;28;20366;-64
2022/10/30 00:27:54;;;;;;;16.97;8.73;;;;;;;;;;4963145;28;20721;-64
2022/10/30 00:30:25;;;;;;;14.13;8.40;;;;;;;;;;4969422;28;20235;-64
2022/10/30 00:32:52;;;;;;;16.63;9.73;;;;;;;;;;4993273;28;20283;-64
2022/10/30 00:35:20;;;;;;;18.20;9.50;;;;;;;;;;4974449;28;20316;-65
2022/10/30 00:37:47;;;;;;;14.97;8.50;;;;;;;;;;4988597;28;20247;-64
2022/10/30 00:40:15;;;;;;;12.53;8.13;;;;;;;;;;4969860;28;23942;-64
2022/10/30 00:42:43;;;;;;;16.10;9.70;;;;;;;;;;4968815;28;20207;-64
2022/10/30 00:45:14;;;;;;;14.03;8.50;;;;;;;;;;4980144;28;20649;-64
2022/10/30 00:47:55;;;;;;;17.57;9.40;;;;;;;;;;4989111;28;20223;-64
2022/10/30 00:50:41;;;;;;;13.60;9.27;;;;;;;;;;5001921;28;20223;-64
2022/10/30 00:53:11;;;;;;;17.73;10.00;;;;;;;;;;4984137;28;20208;-64
2022/10/30 00:55:47;;;;;;;11.83;8.80;;;;;;;;;;4987682;28;20218;-64
2022/10/30 00:58:16;;;;;;;12.97;7.23;;;;;;;;;;4981764;28;20695;-64
2022/10/30 01:00:47;;;;;;;12.33;6.87;;;;;;;;;;4979278;28;20319;-63
2022/10/30 01:03:15;;;;;;;12.33;8.00;;;;;;;;;;4986197;28;20238;-64
2022/10/30 01:05:44;;;;;;;13.57;7.70;;;;;;;;;;5003106;28;20254;-64
2022/10/30 01:08:11;;;;;;;11.17;6.00;;;;;;;;;;4977121;28;20226;-64
2022/10/30 01:10:39;;;;;;;9.73;6.23;;;;;;;;;;4970911;28;20234;-64
2022/10/30 01:13:07;;;;;;;9.03;6.23;;;;;;;;;;4975973;28;20382;-64
2022/10/30 01:15:36;;;;;;;11.97;6.13;;;;;;;;;;4972784;28;20299;-64
2022/10/30 01:18:19;;;;;;;15.50;5.47;;;;;;;;;;4990936;28;20211;-64
2022/10/30 01:20:49;;;;;;;11.10;5.30;;;;;;;;;;4972266;28;20270;-64
2022/10/30 01:23:35;;;;;;;12.67;5.10;;;;;;;;;;4985732;28;20239;-64
2022/10/30 01:26:25;;;;;;;11.53;5.80;;;;;;;;;;4985175;28;20215;-64
2022/10/30 01:28:59;;;;;;;10.50;5.10;;;;;;;;;;4972845;28;20234;-63
2022/10/30 01:31:33;;;;;;;12.27;5.13;;;;;;;;;;4972294;28;20207;-64
2022/10/30 01:34:08;;;;;;;10.43;4.90;;;;;;;;;;4988189;28;20302;-64
2022/10/30 01:36:54;;;;;;;13.27;5.10;;;;;;;;;;4970439;28;20327;-64
2022/10/30 01:39:24;;;;;;;11.27;5.17;;;;;;;;;;4986821;28;20247;-64
2022/10/30 01:41:52;;;;;;;11.07;5.07;;;;;;;;;;4987611;28;20222;-64
2022/10/30 01:44:29;;;;;;;8.97;4.67;;;;;;;;;;4986783;28;20204;-64
2022/10/30 01:47:15;;;;;;;11.27;5.80;;;;;;;;;;4958030;28;20215;-64
2022/10/30 01:49:42;;;;;;;14.13;5.37;;;;;;;;;;4962307;28;20607;-64
2022/10/30 01:52:28;;;;;;;8.83;4.63;;;;;;;;;;4968382;28;20207;-64
2022/10/30 01:55:15;;;;;;;11.77;5.70;;;;;;;;;;4972647;28;20203;-64
2022/10/30 01:57:48;;;;;;;13.40;4.73;;;;;;;;;;4957407;28;21334;-64
2022/10/30 02:00:15;;;;;;;12.07;5.10;;;;;;;;;;4959435;28;20231;-64
2022/10/30 02:02:43;;;;;;;13.00;4.33;;;;;;;;;;4963282;28;20218;-64
2022/10/30 02:05:14;;;;;;;11.40;6.00;;;;;;;;;;4968562;28;20234;-64
2022/10/30 02:07:41;;;;;;;15.13;8.40;;;;;;;;;;4958763;28;20212;-64
2022/10/30 02:10:10;;;;;;;13.13;6.07;;;;;;;;;;4961007;28;20710;-64
2022/10/30 02:12:38;;;;;;;10.73;5.57;;;;;;;;;;4962762;28;20208;-63
2022/10/30 02:15:05;;;;;;;16.70;5.77;;;;;;;;;;4959183;28;20218;-64
2022/10/30 02:17:33;;;;;;;13.40;5.63;;;;;;;;;;4962968;28;20228;-64
2022/10/30 02:20:00;;;;;;;10.73;5.37;;;;;;;;;;4967789;28;20315;-64
2022/10/30 02:22:27;;;;;;;13.87;5.33;;;;;;;;;;4962104;28;20313;-64
2022/10/30 02:24:55;;;;;;;11.03;5.17;;;;;;;;;;4968151;28;20219;-64
2022/10/30 02:27:22;;;;;;;11.20;4.87;;;;;;;;;;4969175;28;20746;-64
2022/10/30 02:29:49;;;;;;;13.20;5.77;;;;;;;;;;4972626;28;20357;-64
2022/10/30 02:32:17;;;;;;;12.90;7.87;;;;;;;;;;4963446;28;20287;-64
2022/10/30 02:34:44;;;;;;;11.73;6.50;;;;;;;;;;4959605;28;20294;-64
2022/10/30 02:37:11;;;;;;;14.33;6.77;;;;;;;;;;4961832;28;20283;-64
2022/10/30 02:39:39;;;;;;;13.40;5.77;;;;;;;;;;4969321;28;20345;-64
2022/10/30 02:42:06;;;;;;;11.97;6.10;;;;;;;;;;4961871;28;20215;-64
2022/10/30 02:44:33;;;;;;;9.80;5.70;;;;;;;;;;4965171;28;20627;-63
2022/10/30 02:47:01;;;;;;;11.33;5.60;;;;;;;;;;4993129;28;20314;-64
2022/10/30 02:49:28;;;;;;;11.87;4.83;;;;;;;;;;4977313;28;20227;-64
2022/10/30 02:51:55;;;;;;;10.13;4.97;;;;;;;;;;4979384;28;20294;-63
2022/10/30 02:54:23;;;;;;;9.60;5.60;;;;;;;;;;4981141;28;20192;-65
2022/10/30 02:56:50;;;;;;;7.80;4.70;;;;;;;;;;4967871;28;20204;-64
2022/10/30 02:59:19;;;;;;;9.67;4.07;;;;;;;;;;4984519;28;20852;-64
2022/10/30 03:01:46;;;;;;;13.80;4.93;;;;;;;;;;4973207;28;20291;-64
2022/10/30 03:04:14;;;;;;;9.97;4.47;;;;;;;;;;4969174;28;20218;-63
2022/10/30 03:06:42;;;;;;;8.17;5.00;;;;;;;;;;4956926;28;20215;-66
2022/10/30 03:09:10;;;;;;;9.63;5.20;;;;;;;;;;4964205;28;20231;-63
2022/10/30 03:11:37;;;;;;;14.83;5.80;;;;;;;;;;4955829;28;20349;-64
2022/10/30 03:14:05;;;;;;;13.13;6.27;;;;;;;;;;4964959;28;20225;-64
2022/10/30 03:16:33;;;;;;;13.87;6.20;;;;;;;;;;4966306;28;20204;-63
2022/10/30 03:19:00;;;;;;;11.23;5.53;;;;;;;;;;4986384;28;20227;-64
2022/10/30 03:21:28;;;;;;;13.03;7.43;;;;;;;;;;4968141;28;20327;-64
2022/10/30 03:23:55;;;;;;;11.10;6.87;;;;;;;;;;4969794;28;20211;-63
2022/10/30 03:26:23;;;;;;;15.73;9.17;;;;;;;;;;4973795;28;20751;-64
2022/10/30 03:28:50;;;;;;;19.20;10.53;;;;;;;;;;4961233;28;20235;-64
2022/10/30 03:31:18;;;;;;;18.43;10.20;;;;;;;;;;4970636;28;20646;-64
2022/10/30 03:33:46;;;;;;;13.90;5.27;;;;;;;;;;4966172;28;20299;-64
2022/10/30 03:36:14;;;;;;;9.23;4.33;;;;;;;;;;4971001;28;20317;-64
2022/10/30 03:38:42;;;;;;;13.93;4.60;;;;;;;;;;4978125;28;20243;-65
2022/10/30 03:41:09;;;;;;;9.20;4.23;;;;;;;;;;4988263;28;20634;-64
2022/10/30 03:43:37;;;;;;;8.70;3.43;;;;;;;;;;4970659;28;20215;-64
2022/10/30 03:46:05;;;;;;;10.70;4.03;;;;;;;;;;4976416;28;20219;-63
2022/10/30 03:48:32;;;;;;;10.67;5.17;;;;;;;;;;4978541;28;20318;-64
2022/10/30 03:50:59;;;;;;;10.07;4.57;;;;;;;;;;4971985;28;20562;-64
2022/10/30 03:53:27;;;;;;;6.53;4.03;;;;;;;;;;4965952;28;20204;-64
2022/10/30 03:55:59;;;;;;;9.40;4.80;;;;;;;;;;4980637;28;20212;-64
2022/10/30 03:58:27;;;;;;;8.27;4.00;;;;;;;;;;4973269;28;20204;-64
2022/10/30 04:01:00;;;;;;;10.73;4.53;;;;;;;;;;4986139;28;20211;-63
2022/10/30 04:03:31;;;;;;;12.53;4.00;;;;;;;;;;4989532;28;20204;-62
2022/10/30 04:05:58;;;;;;;13.37;3.80;;;;;;;;;;4986527;28;20295;-63
2022/10/30 04:08:26;;;;;;;8.97;3.90;;;;;;;;;;4981835;28;20259;-63
2022/10/30 04:10:53;;;;;;;8.33;3.90;;;;;;;;;;4985955;28;20207;-63
2022/10/30 04:13:20;;;;;;;10.00;4.07;;;;;;;;;;4985320;28;20206;-64
2022/10/30 04:15:48;;;;;;;9.77;3.10;;;;;;;;;;4981129;28;20203;-64
2022/10/30 04:18:23;;;;;;;10.67;3.40;;;;;;;;;;4996598;28;20196;-64
2022/10/30 04:20:50;;;;;;;12.43;3.50;;;;;;;;;;4971234;28;20313;-64
2022/10/30 04:23:19;;;;;;;7.97;3.20;;;;;;;;;;4962876;28;21644;-64
2022/10/30 04:25:47;;;;;;;8.17;3.73;;;;;;;;;;4982831;28;20339;-62
2022/10/30 04:28:14;;;;;;;5.67;3.67;;;;;;;;;;4971019;28;20230;-63
2022/10/30 04:30:42;;;;;;;7.33;3.30;;;;;;;;;;4963376;28;20285;-64
2022/10/30 04:33:13;;;;;;;9.50;3.67;;;;;;;;;;4967987;28;20219;-64
2022/10/30 04:35:42;;;;;;;7.97;3.40;;;;;;;;;;4983818;28;20304;-64
2022/10/30 04:38:11;;;;;;;11.20;3.53;;;;;;;;;;4967701;28;20286;-63
2022/10/30 04:40:39;;;;;;;8.90;4.20;;;;;;;;;;4971078;28;20322;-63
2022/10/30 04:43:07;;;;;;;8.57;3.70;;;;;;;;;;4968009;28;20208;-63
2022/10/30 04:45:37;;;;;;;7.50;3.90;;;;;;;;;;4977746;28;20955;-64
2022/10/30 04:48:10;;;;;;;7.83;3.27;;;;;;;;;;4980869;28;20212;-64
2022/10/30 04:50:37;;;;;;;12.60;4.13;;;;;;;;;;4981380;28;20322;-64
2022/10/30 04:53:07;;;;;;;9.10;3.33;;;;;;;;;;4996868;28;20216;-64
2022/10/30 04:55:34;;;;;;;12.03;3.90;;;;;;;;;;4976147;28;20291;-64
2022/10/30 04:58:02;;;;;;;9.17;3.87;;;;;;;;;;4962879;28;20788;-64
2022/10/30 05:00:30;;;;;;;8.27;4.30;;;;;;;;;;4972873;28;20648;-64
2022/10/30 05:02:59;;;;;;;11.67;4.43;;;;;;;;;;4969987;28;20243;-64
2022/10/30 05:05:27;;;;;;;9.90;4.07;;;;;;;;;;4965543;28;21898;-64
2022/10/30 05:07:54;;;;;;;10.93;4.93;;;;;;;;;;4967901;28;20712;-64
2022/10/30 05:10:24;;;;;;;9.63;4.80;;;;;;;;;;4971139;28;20267;-64
2022/10/30 05:12:53;;;;;;;14.07;6.73;;;;;;;;;;4972179;28;20347;-64
2022/10/30 05:15:20;;;;;;;17.33;9.40;;;;;;;;;;4987303;28;20203;-64
2022/10/30 05:17:51;;;;;;;18.27;9.53;;;;;;;;;;4961868;28;20228;-64
2022/10/30 05:20:19;;;;;;;12.90;6.50;;;;;;;;;;4989702;28;20235;-64
2022/10/30 05:22:53;;;;;;;12.03;5.83;;;;;;;;;;4964427;28;20330;-64
2022/10/30 05:25:21;;;;;;;11.17;5.63;;;;;;;;;;4986861;28;20334;-64
2022/10/30 05:27:48;;;;;;;11.90;5.10;;;;;;;;;;4968747;28;20441;-65
2022/10/30 05:30:15;;;;;;;12.27;5.70;;;;;;;;;;4969798;28;20235;-64
2022/10/30 05:32:43;;;;;;;16.70;7.60;;;;;;;;;;4975160;28;20662;-63
2022/10/30 05:35:10;;;;;;;13.37;6.90;;;;;;;;;;4985064;28;20207;-63
2022/10/30 05:37:38;;;;;;;11.03;6.13;;;;;;;;;;4979256;28;20214;-63
2022/10/30 05:40:05;;;;;;;14.43;5.90;;;;;;;;;;4964029;28;20235;-64
2022/10/30 05:42:33;;;;;;;14.63;5.53;;;;;;;;;;4974894;28;20258;-64
2022/10/30 05:45:00;;;;;;;11.77;4.10;;;;;;;;;;4979722;28;20219;-64
2022/10/30 05:47:28;;;;;;;11.10;4.00;;;;;;;;;;4989665;28;20239;-62
2022/10/30 05:49:56;;;;;;;13.20;4.43;;;;;;;;;;4970172;28;20298;-63
2022/10/30 05:52:23;;;;;;;7.33;4.10;;;;;;;;;;4971321;28;20342;-64
2022/10/30 05:54:50;;;;;;;9.20;4.93;;;;;;;;;;4976576;28;20234;-64
2022/10/30 05:57:18;;;;;;;11.17;4.40;;;;;;;;;;4971171;28;20215;-63
2022/10/30 05:59:45;;;;;;;9.63;4.53;;;;;;;;;;4967595;28;20362;-63
2022/10/30 06:02:12;;;;;;;11.50;4.50;;;;;;;;;;4967780;28;20212;-63
2022/10/30 06:04:40;;;;;;;11.23;4.37;;;;;;;;;;4975538;28;20207;-64
2022/10/30 06:07:07;;;;;;;11.27;4.20;;;;;;;;;;4972064;28;20295;-63
2022/10/30 06:09:35;;;;;;;11.47;4.23;;;;;;;;;;4966573;28;20326;-64
2022/10/30 06:12:02;;;;;;;8.87;4.83;;;;;;;;;;4969385;28;20664;-64
2022/10/30 06:14:30;;;;;;;12.33;5.33;;;;;;;;;;4981563;28;20307;-64
2022/10/30 06:16:57;;;;;;;11.43;5.37;;;;;;;;;;4957087;28;20222;-65
2022/10/30 06:19:24;;;;;;;12.10;5.00;;;;;;;;;;4958412;28;20362;-64
2022/10/30 06:21:53;;;;;;;15.93;5.60;;;;;;;;;;4969448;28;20204;-63
2022/10/30 06:24:21;;;;;;;11.47;4.93;;;;;;;;;;4961628;28;20208;-62
2022/10/30 06:26:49;;;;;;;7.93;4.30;;;;;;;;;;4972349;28;20322;-63
2022/10/30 06:29:17;;;;;;;10.43;4.80;;;;;;;;;;4960589;28;20231;-63
2022/10/30 06:31:44;;;;;;;9.20;5.30;;;;;;;;;;4969340;28;20303;-64
2022/10/30 06:34:12;;;;;;;13.80;4.53;;;;;;;;;;4965532;28;20286;-64
2022/10/30 06:36:39;;;;;;;10.00;4.87;;;;;;;;;;4968942;28;20384;-64
2022/10/30 06:39:06;;;;;;;13.37;5.40;;;;;;;;;;4968106;28;26720;-64
2022/10/30 06:41:35;;;;;;;10.10;4.77;;;;;;;;;;4963875;28;20212;-64
2022/10/30 06:44:02;;;;;;;13.10;4.63;;;;;;;;;;4973378;28;20254;-64
2022/10/30 06:46:29;;;;;;;6.50;3.57;;;;;;;;;;4969142;28;20212;-64
2022/10/30 06:49:00;;;;;;;5.37;3.30;;;;;;;;;;4965981;28;20339;-64
2022/10/30 06:51:27;;;;;;;13.00;4.07;;;;;;;;;;4971081;28;20823;-64
2022/10/30 06:53:55;;;;;;;8.80;5.03;;;;;;;;;;4982609;28;20298;-63
2022/10/30 06:56:22;;;;;;;12.00;6.07;;;;;;;;;;4988552;28;20286;-63
2022/10/30 06:58:49;;;;;;;7.53;3.57;;;;;;;;;;4987258;28;20266;-63
2022/10/30 07:01:17;;;;;;;8.10;3.27;;;;;;;;;;4981704;28;20207;-64
2022/10/30 07:03:44;;;;;;;9.73;3.77;;;;;;;;;;4983548;28;20227;-64
2022/10/30 07:06:11;;;;;;;5.40;2.70;;;;;;;;;;4974943;28;20232;-64
2022/10/30 07:08:39;;;;;;;3.97;2.57;;;;;;;;;;4975383;28;20257;-64
2022/10/30 07:11:06;;;;;;;7.90;4.37;;;;;;;;;;4974707;28;21296;-63
2022/10/30 07:13:34;;;;;;;8.30;4.27;;;;;;;;;;4970894;28;20323;-64
2022/10/30 07:16:01;;;;;;;11.03;5.57;;;;;;;;;;4972448;28;20319;-64
2022/10/30 07:18:31;;;;;;;7.60;3.77;;;;;;;;;;4986953;28;20665;-64
2022/10/30 07:20:58;;;;;;;10.87;3.63;;;;;;;;;;4973126;28;20298;-64
2022/10/30 07:23:26;;;;;;;6.43;3.20;;;;;;;;;;4979559;28;20235;-64
2022/10/30 07:25:53;;;;;;;8.17;3.37;;;;;;;;;;4974773;28;20235;-63
2022/10/30 07:28:30;;;;;;;6.63;3.03;;;;;;;;;;4970540;28;20537;-64
2022/10/30 07:30:58;;;;;;;7.30;3.10;;;;;;;;;;4992430;28;21375;-64
2022/10/30 07:33:26;;;;;;;9.13;2.50;;;;;;;;;;4986731;28;20203;-64
2022/10/30 07:35:53;;;;;;;13.03;3.03;;;;;;;;;;4972081;28;20239;-65
2022/10/30 07:38:20;;;;;;;12.13;4.55;;;;;;;;;;4968067;28;20207;-64
2022/10/30 07:40:52;;;;;;;10.15;4.38;;;;;;;;;;4968575;28;20294;-63
2022/10/30 07:43:19;;;;;;;8.25;3.92;;;;;;;;;;4976255;28;20745;-63
2022/10/30 07:45:47;;;;;;;8.90;4.30;;;;;;;;;;4973661;28;20222;-64
2022/10/30 07:48:14;;;;;;;10.95;3.00;;;;;;;;;;4994691;28;20670;-64
2022/10/30 07:50:42;;;;;;;8.32;3.28;;;;;;;;;;4975898;28;20799;-64
2022/10/30 07:53:09;;;;;;;5.82;2.80;;;;;;;;;;4967857;28;20303;-63
2022/10/30 07:55:37;;;;;;;4.90;3.08;;;;;;;;;;4992710;28;20361;-64
2022/10/30 07:58:04;;;;;;;7.20;2.95;;;;;;;;;;4981029;28;20335;-64
2022/10/30 08:00:32;;;;;;;6.30;3.13;;;;;;;;;;4983811;28;20262;-64
2022/10/30 08:02:59;;;;;;;6.72;3.10;;;;;;;;;;4984688;28;20311;-63
2022/10/30 08:05:27;;;;;;;7.82;3.10;;;;;;;;;;4982903;28;20219;-63
2022/10/30 08:07:57;;;;;;;7.97;3.22;;;;;;;;;;4974869;28;21391;-63
2022/10/30 08:10:25;;;;;;;8.32;3.40;;;;;;;;;;4972662;28;20234;-62
2022/10/30 08:12:52;;;;;;;7.95;4.30;;;;;;;;;;4991353;28;20684;-64
2022/10/30 08:15:19;;;;;;;9.63;3.80;;;;;;;;;;4964799;28;20208;-63
2022/10/30 08:17:48;;;;;;;5.85;2.92;;;;;;;;;;4975183;28;20617;-64
2022/10/30 08:20:17;;;;;;;10.48;4.57;;;;;;;;;;4972267;28;20315;-64
2022/10/30 08:22:48;;;;;;;24.10;9.27;;;;;;;;;;4969435;28;20274;-64
2022/10/30 08:25:16;;;;;;;22.30;9.00;;;;;;;;;;4970294;28;20240;-65
2022/10/30 08:27:56;;;;;;;17.95;6.95;;;;;;;;;;4987039;28;20207;-65
2022/10/30 08:30:24;;;;;;;16.40;6.13;;;;;;;;;;4974465;28;20232;-65
2022/10/30 08:32:52;;;;;;;14.68;6.03;;;;;;;;;;4964108;28;20694;-63
2022/10/30 08:35:19;;;;;;;7.40;3.65;;;;;;;;;;4966906;28;20353;-64
2022/10/30 08:37:48;;;;;;;9.43;3.90;;;;;;;;;;4973614;28;20203;-63
2022/10/30 08:40:15;;;;;;;7.25;3.47;;;;;;;;;;4995529;28;20789;-62
2022/10/30 08:42:49;;;;;;;3.95;2.70;;;;;;;;;;4977248;28;20334;-63
2022/10/30 08:45:16;;;;;;;5.63;2.65;;;;;;;;;;4985937;28;20363;-63
2022/10/30 08:47:44;;;;;;;5.03;2.90;;;;;;;;;;4975090;28;20303;-63
2022/10/30 08:50:11;;;;;;;9.23;3.22;;;;;;;;;;4986043;28;20223;-64
2022/10/30 08:52:38;;;;;;;4.43;2.90;;;;;;;;;;4979187;28;20215;-63
2022/10/30 08:55:06;;;;;;;6.38;2.60;;;;;;;;;;4977268;28;20342;-64
2022/10/30 08:57:37;;;;;;;4.45;2.55;;;;;;;;;;4983065;28;20299;-63
2022/10/30 09:00:05;;;;;;;4.00;2.10;;;;;;;;;;4978524;28;20231;-64
2022/10/30 09:02:33;;;;;;;7.50;2.30;;;;;;;;;;4966483;28;20211;-63
2022/10/30 09:05:01;;;;;;;3.33;2.22;;;;;;;;;;4962863;28;20208;-64
2022/10/30 09:07:30;;;;;;;6.72;2.45;;;;;;;;;;4964035;28;21107;-64
2022/10/30 09:09:58;;;;;;;5.68;2.05;;;;;;;;;;4967222;28;20224;-64
2022/10/30 09:12:25;;;;;;;3.92;2.40;;;;;;;;;;4969393;28;20295;-64
2022/10/30 09:14:53;;;;;;;6.85;2.40;;;;;;;;;;4975895;28;20709;-66
2022/10/30 09:17:20;;;;;;;4.60;2.30;;;;;;;;;;4966399;28;20200;-65
2022/10/30 09:19:47;;;;;;;4.10;2.20;;;;;;;;;;4998258;28;20825;-63
2022/10/30 09:22:15;;;;;;;6.88;2.00;;;;;;;;;;4978700;28;20702;-63
2022/10/30 09:24:42;;;;;;;4.70;2.38;;;;;;;;;;4986863;28;20294;-69
2022/10/30 09:27:09;;;;;;;7.90;2.13;;;;;;;;;;4970200;28;20299;-66
2022/10/30 09:29:37;;;;;;;4.53;2.70;;;;;;;;;;4983371;28;20674;-66
2022/10/30 09:32:07;;;;;;;4.63;2.20;;;;;;;;;;4966981;28;20200;-65
2022/10/30 09:34:35;;;;;;;6.80;2.40;;;;;;;;;;4987411;28;20299;-66
2022/10/30 09:37:02;;;;;;;6.32;2.20;;;;;;;;;;4999281;28;20291;-64
2022/10/30 09:39:30;;;;;;;4.68;1.92;;;;;;;;;;4978355;28;20247;-64
2022/10/30 09:42:00;;;;;;;4.28;2.25;;;;;;;;;;4977021;28;20207;-65
2022/10/30 09:44:33;;;;;;;4.75;2.25;;;;;;;;;;4973361;28;20242;-64
2022/10/30 09:47:01;;;;;;;4.25;1.95;;;;;;;;;;4980890;28;20302;-62
2022/10/30 09:49:28;;;;;;;4.75;2.00;;;;;;;;;;4986565;28;20227;-63
2022/10/30 09:52:14;;;;;;;6.63;2.05;;;;;;;;;;4978655;28;20227;-64
2022/10/30 09:54:45;;;;;;;3.75;1.52;;;;;;;;;;4996698;28;20314;-63
2022/10/30 09:57:16;;;;;;;10.60;2.20;;;;;;;;;;4995965;28;20737;-64
2022/10/30 09:59:43;;;;;;;8.73;3.47;;;;;;;;;;4978389;28;20227;-63
2022/10/30 10:02:23;;;;;;;13.80;3.58;;;;;;;;;;5001312;28;20309;-64
2022/10/30 10:04:52;;;;;;;4.60;2.20;;;;;;;;;;4978708;28;20577;-65
2022/10/30 10:07:22;;;;;;;7.90;2.38;;;;;;;;;;5000606;28;20227;-64
2022/10/30 10:09:52;;;;;;;5.22;1.92;;;;;;;;;;4991514;28;20231;-66
2022/10/30 10:12:25;;;;;;;6.32;1.63;;;;;;;;;;4981899;28;20670;-63
2022/10/30 10:14:54;;;;;;;4.57;1.60;;;;;;;;;;4986394;28;20250;-65
2022/10/30 10:17:28;;;;;;;4.60;1.63;;;;;;;;;;4991791;28;20200;-65
2022/10/30 10:20:01;;;;;;;4.75;1.80;;;;;;;;;;4981521;28;20215;-64
2022/10/30 10:22:48;;;;;;;7.20;1.90;;;;;;;;;;5000635;28;20669;-63
2022/10/30 10:25:17;;;;;;;4.55;2.03;;;;;;;;;;4982914;28;20466;-63
2022/10/30 10:27:56;;;;;;;2.78;1.40;;;;;;;;;;4982640;28;20227;-65
2022/10/30 10:30:25;;;;;;;2.80;1.20;;;;;;;;;;4987021;28;20318;-63
2022/10/30 10:32:52;;;;;;;3.13;1.17;;;;;;;;;;4973279;28;20207;-63
2022/10/30 10:35:38;;;;;;;4.95;1.40;;;;;;;;;;4981616;28;20214;-64
2022/10/30 10:38:25;;;;;;;2.95;1.23;;;;;;;;;;4986365;28;20234;-65
2022/10/30 10:40:55;;;;;;;3.08;1.10;;;;;;;;;;4981235;28;20304;-64
2022/10/30 10:43:28;;;;;;;3.25;1.30;;;;;;;;;;4987535;28;20208;-64
2022/10/30 10:46:14;;;;;;;4.68;1.33;;;;;;;;;;4989775;28;20310;-63
2022/10/30 10:48:45;;;;;;;2.60;1.33;;;;;;;;;;4982656;28;20210;-63
2022/10/30 10:51:26;;;;;;;6.22;1.65;;;;;;;;;;4979673;28;20227;-63
2022/10/30 10:53:59;;;;;;;1.98;1.30;;;;;;;;;;4986014;28;20302;-64
2022/10/30 10:56:37;;;;;;;5.18;1.42;;;;;;;;;;4982286;28;20207;-64
2022/10/30 10:59:12;;;;;;;4.88;1.42;;;;;;;;;;4987434;28;20306;-64
2022/10/30 11:01:43;;;;;;;6.00;1.45;;;;;;;;;;4980668;28;20629;-64
2022/10/30 11:04:27;;;;;;;3.30;1.33;;;;;;;;;;4980830;28;20212;-65
2022/10/30 11:06:55;;;;;;;3.53;1.30;;;;;;;;;;4983902;28;20699;-64
2022/10/30 11:09:23;;;;;;;4.35;1.33;;;;;;;;;;4979273;28;21032;-64
2022/10/30 11:11:52;;;;;;;6.15;1.90;;;;;;;;;;4982094;28;20219;-66
2022/10/30 11:14:20;;;;;;;4.03;1.10;;;;;;;;;;4977089;28;20202;-63
2022/10/30 11:17:00;;;;;;;2.58;1.30;;;;;;;;;;4988830;28;20582;-63
2022/10/30 11:19:30;;;;;;;2.92;1.30;;;;;;;;;;4981862;28;20860;-64
2022/10/30 11:21:58;;;;;;;4.80;1.58;;;;;;;;;;4980189;28;20686;-63
2022/10/30 11:24:25;;;;;;;5.55;1.80;;;;;;;;;;4982559;28;20254;-65
2022/10/30 11:26:55;;;;;;;3.72;1.83;;;;;;;;;;4974927;28;20214;-62
2022/10/30 11:29:23;;;;;;;3.75;1.70;;;;;;;;;;4974788;28;20660;-65
2022/10/30 11:32:01;;;;;;;4.82;1.77;;;;;;;;;;4988209;28;20231;-64
2022/10/30 11:34:31;;;;;;;4.95;1.88;;;;;;;;;;4981709;28;20208;-64
2022/10/30 11:36:59;;;;;;;4.80;1.83;;;;;;;;;;4982473;28;20712;-65
2022/10/30 11:39:27;;;;;;;5.68;2.15;;;;;;;;;;4985913;28;20331;-61
2022/10/30 11:42:00;;;;;;;5.93;1.77;;;;;;;;;;4981719;28;20577;-65
2022/10/30 11:44:38;;;;;;;5.18;1.90;;;;;;;;;;4994780;28;20203;-64
2022/10/30 11:47:09;;;;;;;5.82;1.80;;;;;;;;;;4998947;28;21220;-64
2022/10/30 11:49:51;;;;;;;5.55;2.05;;;;;;;;;;4984856;28;20322;-65
2022/10/30 11:52:20;;;;;;;6.63;2.00;;;;;;;;;;4973819;28;20325;-65
2022/10/30 11:54:49;;;;;;;6.63;1.80;;;;;;;;;;4979470;28;20417;-63
2022/10/30 11:57:21;;;;;;;8.38;1.85;;;;;;;;;;4980879;28;20250;-63
2022/10/30 11:59:50;;;;;;;6.32;1.92;;;;;;;;;;4985809;28;20249;-68
2022/10/30 12:02:22;;;;;;;4.90;1.77;;;;;;;;;;4986174;28;20944;-63
2022/10/30 12:04:50;;;;;;;4.78;1.95;;;;;;;;;;4982731;28;20617;-63
2022/10/30 12:07:20;;;;;;;3.63;1.40;;;;;;;;;;4986876;28;20163;-63
2022/10/30 12:09:48;;;;;;;3.35;1.50;;;;;;;;;;4979973;28;20289;-63
2022/10/30 12:12:18;;;;;;;11.13;2.55;;;;;;;;;;4987603;28;20276;-63
2022/10/30 12:14:45;;;;;;;4.30;1.90;;;;;;;;;;4989960;28;20293;-63
2022/10/30 12:17:17;;;;;;;8.75;2.35;;;;;;;;;;5002222;28;20318;-64
2022/10/30 12:19:46;;;;;;;5.28;1.85;;;;;;;;;;4985395;28;20318;-64
2022/10/30 12:22:23;;;;;;;8.50;1.85;;;;;;;;;;4992468;28;20243;-62
2022/10/30 12:24:52;;;;;;;6.47;2.15;;;;;;;;;;4987285;28;20286;-66
2022/10/30 12:27:19;;;;;;;9.23;1.88;;;;;;;;;;4985980;28;20303;-64
2022/10/30 12:30:00;;;;;;;8.88;2.40;;;;;;;;;;4995475;28;20630;-64
2022/10/30 12:32:51;;;;;;;6.82;1.80;;;;;;;;;;4983092;28;20662;-65
2022/10/30 12:35:34;;;;;;;6.60;2.00;;;;;;;;;;4991223;28;20207;-65
2022/10/30 12:38:02;;;;;;;5.72;1.98;;;;;;;;;;4983699;28;20286;-64
2022/10/30 12:40:30;;;;;;;7.30;2.13;;;;;;;;;;4985621;28;20306;-62
2022/10/30 12:43:01;;;;;;;4.75;2.08;;;;;;;;;;4988630;28;20207;-64
2022/10/30 12:45:37;;;;;;;3.90;1.88;;;;;;;;;;4978158;28;20224;-63
2022/10/30 12:48:10;;;;;;;3.35;1.70;;;;;;;;;;4984466;28;20620;-64
2022/10/30 12:50:44;;;;;;;4.85;1.70;;;;;;;;;;4983599;28;20223;-64
2022/10/30 12:53:18;;;;;;;8.93;1.90;;;;;;;;;;4983031;28;20960;-64
2022/10/30 12:55:52;;;;;;;7.68;2.22;;;;;;;;;;4988725;28;20286;-65
2022/10/30 12:58:19;;;;;;;6.35;1.92;;;;;;;;;;4984324;28;20246;-64
2022/10/30 13:00:54;;;;;;;2.80;1.50;;;;;;;;;;4981046;28;20230;-62
2022/10/30 13:03:25;;;;;;;5.55;1.90;;;;;;;;;;5000308;28;20677;-64
2022/10/30 13:05:54;;;;;;;6.10;1.92;;;;;;;;;;4984911;28;20295;-63
2022/10/30 13:08:31;;;;;;;5.70;1.77;;;;;;;;;;4984860;28;22145;-64
2022/10/30 13:11:05;;;;;;;6.90;2.00;;;;;;;;;;4979611;28;20310;-64
2022/10/30 13:13:35;;;;;;;6.45;1.83;;;;;;;;;;4995432;28;20696;-65
2022/10/30 13:16:06;;;;;;;2.97;1.60;;;;;;;;;;5008152;28;20234;-64
2022/10/30 13:18:34;;;;;;;5.00;1.67;;;;;;;;;;4991825;28;20766;-65
2022/10/30 13:21:11;;;;;;;8.52;1.80;;;;;;;;;;5001057;28;20219;-64
2022/10/30 13:23:45;;;;;;;3.80;1.90;;;;;;;;;;4987228;28;20246;-63
2022/10/30 13:26:18;;;;;;;3.03;1.70;;;;;;;;;;4984060;28;20303;-65
2022/10/30 13:29:13;;;;;;;4.25;1.60;;;;;;;;;;4987951;28;20207;-64
2022/10/30 13:31:50;;;;;;;3.92;1.75;;;;;;;;;;4981337;28;20310;-65
2022/10/30 13:34:27;;;;;;;6.93;1.60;;;;;;;;;;4999979;28;20217;-63
2022/10/30 13:37:02;;;;;;;5.00;2.33;;;;;;;;;;4985765;28;20200;-65
2022/10/30 13:39:38;;;;;;;4.22;1.85;;;;;;;;;;4983649;28;20309;-61
2022/10/30 13:42:26;;;;;;;6.10;1.70;;;;;;;;;;4987164;28;20732;-64
2022/10/30 13:45:12;;;;;;;5.75;1.70;;;;;;;;;;4982125;28;20210;-62
2022/10/30 13:47:44;;;;;;;8.75;2.67;;;;;;;;;;4981019;28;20239;-64
2022/10/30 13:50:15;;;;;;;5.70;2.10;;;;;;;;;;4984930;28;20322;-63
2022/10/30 13:52:46;;;;;;;3.88;2.00;;;;;;;;;;4984661;28;20464;-62
2022/10/30 13:55:18;;;;;;;4.38;1.75;;;;;;;;;;4997493;28;20243;-62
2022/10/30 13:57:55;;;;;;;4.72;1.52;;;;;;;;;;4993988;28;20290;-63
2022/10/30 14:00:38;;;;;;;5.63;2.00;;;;;;;;;;4969074;28;20306;-64
2022/10/30 14:03:05;;;;;;;3.90;1.63;;;;;;;;;;4973272;28;20298;-64
2022/10/30 14:05:39;;;;;;;6.53;1.67;;;;;;;;;;4981751;28;20211;-63
2022/10/30 14:08:10;;;;;;;5.60;1.60;;;;;;;;;;4970265;28;20213;-66
2022/10/30 14:10:48;;;;;;;4.53;1.90;;;;;;;;;;4983695;28;20305;-63
2022/10/30 14:13:26;;;;;;;3.55;1.58;;;;;;;;;;4969334;28;20211;-64
2022/10/30 14:16:01;;;;;;;5.15;1.80;;;;;;;;;;4973963;28;20203;-64
2022/10/30 14:18:30;;;;;;;2.83;1.38;;;;;;;;;;4973115;28;20223;-63
2022/10/30 14:21:21;;;;;;;9.07;1.70;;;;;;;;;;4987289;28;20674;-66
2022/10/30 14:24:01;;;;;;;3.22;1.60;;;;;;;;;;4976695;28;20210;-63
2022/10/30 14:26:28;;;;;;;7.10;2.05;;;;;;;;;;4991799;28;20305;-64
2022/10/30 14:28:55;;;;;;;5.38;2.25;;;;;;;;;;4990550;28;20302;-63
2022/10/30 14:31:33;;;;;;;5.15;1.90;;;;;;;;;;4986408;28;20254;-64
2022/10/30 14:34:01;;;;;;;4.22;1.70;;;;;;;;;;4967139;28;20217;-63
2022/10/30 14:36:38;;;;;;;3.72;1.58;;;;;;;;;;4976242;28;20216;-66
2022/10/30 14:39:11;;;;;;;2.47;1.67;;;;;;;;;;4974618;28;20318;-64
2022/10/30 14:41:54;;;;;;;5.03;1.50;;;;;;;;;;4977853;28;20274;-64
2022/10/30 14:44:34;;;;;;;5.75;2.22;;;;;;;;;;4977075;28;20298;-64
2022/10/30 14:47:21;;;;;;;4.75;1.75;;;;;;;;;;4974367;28;20238;-63
2022/10/30 14:49:48;;;;;;;4.70;1.90;;;;;;;;;;4968851;28;20251;-64
2022/10/30 14:52:28;;;;;;;7.30;2.00;;;;;;;;;;4965218;28;20216;-66
2022/10/30 14:54:59;;;;;;;2.13;1.55;;;;;;;;;;4954594;28;20242;-66
2022/10/30 14:57:46;;;;;;;6.43;2.00;;;;;;;;;;4980462;28;20210;-63